KMIW/MIW METAR and TAF weather

Enter ICAO airport designator
Station Type Date Time Source
KMIW METAR 2019/08/24 22:53 UTC NOAA

KMIW 242253Z AUTO 13008KT 10SM BKN050 21/15 A3013 RMK AO2 SLP201 T02110150


Station Type Date Time Source
KMIW Decoded METAR 2019/08/24 22:53 UTC NOAA

Station name not available
Aug 24, 2019 - 06:53 PM EDT / 2019.08.24 2253 UTC
Wind: from the SE (130 degrees) at 9 MPH (8 KT):0
Visibility: 10 mile(s):0
Sky conditions: mostly cloudy
Temperature: 70.0 F (21.1 C)
Dew Point: 59.0 F (15.0 C)
Relative Humidity: 68%
Pressure (altimeter): 30.13 in. Hg (1020 hPa)
ob: KMIW 242253Z AUTO 13008KT 10SM BKN050 21/15 A3013 RMK AO2 SLP201 T02110150
cycle: 23

Station Type Date Time Source
KMIW TAF UTC NOAA

Error!

Example: see airport list